createdAt,value
2018-12-27T00:00:43.549Z,1023.71
2018-12-27T00:01:44.449Z,1023.73
2018-12-27T00:02:43.559Z,1023.75
2018-12-27T00:03:43.572Z,1023.76
2018-12-27T00:04:43.556Z,1023.76
2018-12-27T00:05:43.572Z,1023.74
2018-12-27T00:06:43.564Z,1023.73
2018-12-27T00:07:43.578Z,1023.69
2018-12-27T00:08:43.568Z,1023.72
2018-12-27T00:09:43.578Z,1023.73
2018-12-27T00:10:43.575Z,1023.75
2018-12-27T00:11:43.581Z,1023.77
2018-12-27T00:12:43.586Z,1023.84
2018-12-27T00:13:43.583Z,1023.86
2018-12-27T00:14:43.586Z,1023.81
2018-12-27T00:15:43.655Z,1023.77
2018-12-27T00:16:43.591Z,1023.76
2018-12-27T00:17:43.598Z,1023.77
2018-12-27T00:18:43.601Z,1023.74
2018-12-27T00:19:43.610Z,1023.73
2018-12-27T00:20:43.599Z,1023.76
2018-12-27T00:21:43.651Z,1023.75
2018-12-27T00:22:43.595Z,1023.73
2018-12-27T00:23:43.623Z,1023.72
2018-12-27T00:24:43.609Z,1023.74
2018-12-27T00:25:43.641Z,1023.72
2018-12-27T00:26:43.604Z,1023.72
2018-12-27T00:27:43.621Z,1023.70
2018-12-27T00:28:43.619Z,1023.71
2018-12-27T00:29:43.632Z,1023.73
2018-12-27T00:30:43.622Z,1023.71
2018-12-27T00:31:43.626Z,1023.72
2018-12-27T00:32:43.639Z,1023.67
2018-12-27T00:33:43.647Z,1023.65
2018-12-27T00:34:43.632Z,1023.62
2018-12-27T00:35:43.679Z,1023.60
2018-12-27T00:36:43.641Z,1023.62
2018-12-27T00:37:43.689Z,1023.59
2018-12-27T00:38:43.640Z,1023.62
2018-12-27T00:39:43.660Z,1023.61
2018-12-27T00:40:43.647Z,1023.61
2018-12-27T00:41:43.673Z,1023.61
2018-12-27T00:42:43.676Z,1023.61
2018-12-27T00:43:43.663Z,1023.64
2018-12-27T00:44:43.655Z,1023.63
2018-12-27T00:45:43.665Z,1023.64
2018-12-27T00:46:43.660Z,1023.62
2018-12-27T00:47:43.669Z,1023.61
2018-12-27T00:48:43.669Z,1023.63
2018-12-27T00:49:43.724Z,1023.65
2018-12-27T00:50:43.677Z,1023.66
2018-12-27T00:51:43.671Z,1023.72
2018-12-27T00:52:43.671Z,1023.67
2018-12-27T00:53:43.685Z,1023.63
2018-12-27T00:54:43.675Z,1023.63
2018-12-27T00:55:43.745Z,1023.64
2018-12-27T00:56:43.681Z,1023.64
2018-12-27T00:57:43.689Z,1023.64
2018-12-27T00:58:43.686Z,1023.63
2018-12-27T00:59:43.699Z,1023.58
2018-12-27T01:00:43.699Z,1023.60
2018-12-27T01:01:43.691Z,1023.58
2018-12-27T01:02:43.702Z,1023.57
2018-12-27T01:03:43.705Z,1023.58
2018-12-27T01:04:43.703Z,1023.55
2018-12-27T01:05:43.703Z,1023.55
2018-12-27T01:06:43.707Z,1023.52
2018-12-27T01:07:43.729Z,1023.48
2018-12-27T01:08:43.716Z,1023.50
2018-12-27T01:09:43.702Z,1023.51
2018-12-27T01:10:43.723Z,1023.51
2018-12-27T01:11:43.724Z,1023.48
2018-12-27T01:12:43.721Z,1023.47
2018-12-27T01:13:43.723Z,1023.48
2018-12-27T01:14:43.729Z,1023.45
2018-12-27T01:15:43.729Z,1023.46
2018-12-27T01:16:43.731Z,1023.44
2018-12-27T01:17:43.732Z,1023.40
2018-12-27T01:18:43.731Z,1023.42
2018-12-27T01:19:43.741Z,1023.37
2018-12-27T01:20:43.743Z,1023.42
2018-12-27T01:21:43.739Z,1023.42
2018-12-27T01:22:43.741Z,1023.41
2018-12-27T01:23:43.760Z,1023.46
2018-12-27T01:24:43.759Z,1023.41
2018-12-27T01:25:43.757Z,1023.41
2018-12-27T01:26:43.751Z,1023.42
2018-12-27T01:27:43.751Z,1023.43
2018-12-27T01:28:43.755Z,1023.44
2018-12-27T01:29:43.758Z,1023.46
2018-12-27T01:30:43.761Z,1023.48
2018-12-27T01:31:50.474Z,1023.47
2018-12-27T01:32:43.775Z,1023.47
2018-12-27T01:33:43.779Z,1023.44
2018-12-27T01:34:43.793Z,1023.41
2018-12-27T01:35:43.777Z,1023.43
2018-12-27T01:36:43.795Z,1023.44
2018-12-27T01:37:43.780Z,1023.47
2018-12-27T01:38:43.786Z,1023.48
2018-12-27T01:39:43.797Z,1023.48
2018-12-27T01:40:43.803Z,1023.43
2018-12-27T01:41:43.799Z,1023.43
2018-12-27T01:42:43.790Z,1023.48
2018-12-27T01:43:43.792Z,1023.51
2018-12-27T01:44:43.793Z,1023.51
2018-12-27T01:45:43.808Z,1023.47
2018-12-27T01:46:43.803Z,1023.46
2018-12-27T01:47:43.793Z,1023.44
2018-12-27T01:48:43.805Z,1023.41
2018-12-27T01:49:43.809Z,1023.40
2018-12-27T01:50:43.803Z,1023.39
2018-12-27T01:51:43.809Z,1023.39
2018-12-27T01:52:43.817Z,1023.37
2018-12-27T01:53:43.817Z,1023.37
2018-12-27T01:54:43.823Z,1023.35
2018-12-27T01:55:43.829Z,1023.29
2018-12-27T01:56:43.821Z,1023.29
2018-12-27T01:57:43.827Z,1023.30
2018-12-27T01:58:43.829Z,1023.24
2018-12-27T01:59:43.831Z,1023.18
2018-12-27T02:00:43.840Z,1023.21
2018-12-27T02:01:43.840Z,1023.18
2018-12-27T02:02:43.840Z,1023.19
2018-12-27T02:03:43.838Z,1023.22
2018-12-27T02:04:43.848Z,1023.18
2018-12-27T02:05:43.844Z,1023.17
2018-12-27T02:06:43.848Z,1023.18
2018-12-27T02:07:43.844Z,1023.20
2018-12-27T02:08:43.859Z,1023.24
2018-12-27T02:09:43.856Z,1023.19
2018-12-27T02:10:43.858Z,1023.15
2018-12-27T02:11:43.856Z,1023.17
2018-12-27T02:12:43.863Z,1023.12
2018-12-27T02:13:43.864Z,1023.13
2018-12-27T02:14:43.866Z,1023.05
2018-12-27T02:15:43.869Z,1023.02
2018-12-27T02:16:43.873Z,1023.01
2018-12-27T02:17:43.877Z,1023.04
2018-12-27T02:18:43.875Z,1023.01
2018-12-27T02:19:43.882Z,1023.03
2018-12-27T02:20:43.888Z,1023.02
2018-12-27T02:21:43.894Z,1022.96
2018-12-27T02:22:43.886Z,1022.95
2018-12-27T02:23:43.886Z,1022.97
2018-12-27T02:24:43.898Z,1022.99
2018-12-27T02:25:43.884Z,1022.97
2018-12-27T02:26:43.894Z,1023.00
2018-12-27T02:27:43.894Z,1023.00
2018-12-27T02:28:43.901Z,1023.04
2018-12-27T02:29:43.912Z,1023.08
2018-12-27T02:30:43.907Z,1023.08
2018-12-27T02:31:43.912Z,1023.05
2018-12-27T02:32:43.908Z,1023.01
2018-12-27T02:33:43.911Z,1023.00
2018-12-27T02:34:43.929Z,1022.94
2018-12-27T02:35:43.917Z,1022.93
2018-12-27T02:36:43.919Z,1022.96
2018-12-27T02:37:43.924Z,1022.95
2018-12-27T02:38:43.926Z,1022.96
2018-12-27T02:39:43.929Z,1023.01
2018-12-27T02:40:43.934Z,1022.97
2018-12-27T02:41:43.929Z,1022.93
2018-12-27T02:42:43.931Z,1022.94
2018-12-27T02:43:43.938Z,1022.94
2018-12-27T02:44:43.936Z,1022.92
2018-12-27T02:45:43.941Z,1022.90
2018-12-27T02:46:43.944Z,1022.93
2018-12-27T02:47:43.944Z,1022.87
2018-12-27T02:48:43.953Z,1022.87
2018-12-27T02:49:43.946Z,1022.87
2018-12-27T02:50:43.952Z,1022.89
2018-12-27T02:51:43.957Z,1022.80
2018-12-27T02:52:43.964Z,1022.85
2018-12-27T02:53:43.959Z,1022.82
2018-12-27T02:54:43.964Z,1022.83
2018-12-27T02:55:43.964Z,1022.83
2018-12-27T02:56:43.968Z,1022.84
2018-12-27T02:57:43.970Z,1022.81
2018-12-27T02:58:43.979Z,1022.84
2018-12-27T02:59:43.970Z,1022.85
2018-12-27T03:00:43.974Z,1022.81
2018-12-27T03:01:43.982Z,1022.81
2018-12-27T03:02:43.983Z,1022.85
2018-12-27T03:03:44.255Z,1022.80
2018-12-27T03:04:43.984Z,1022.85
2018-12-27T03:05:43.987Z,1022.83
2018-12-27T03:06:43.987Z,1022.82
2018-12-27T03:07:43.992Z,1022.80
2018-12-27T03:08:43.999Z,1022.77
2018-12-27T03:09:43.995Z,1022.77
2018-12-27T03:10:44.001Z,1022.78
2018-12-27T03:11:44.005Z,1022.77
2018-12-27T03:12:44.001Z,1022.76
2018-12-27T03:13:44.009Z,1022.75
2018-12-27T03:14:44.012Z,1022.75
2018-12-27T03:15:44.015Z,1022.73
2018-12-27T03:16:44.011Z,1022.76
2018-12-27T03:17:44.022Z,1022.76
2018-12-27T03:18:44.019Z,1022.71
2018-12-27T03:19:44.022Z,1022.70
2018-12-27T03:20:44.022Z,1022.69
2018-12-27T03:21:44.027Z,1022.65
2018-12-27T03:22:44.051Z,1022.64
2018-12-27T03:23:44.032Z,1022.56
2018-12-27T03:24:44.030Z,1022.60
2018-12-27T03:25:44.043Z,1022.57
2018-12-27T03:26:44.047Z,1022.58
2018-12-27T03:27:44.043Z,1022.55
2018-12-27T03:28:44.041Z,1022.55
2018-12-27T03:29:44.044Z,1022.55
2018-12-27T03:30:44.038Z,1022.54
2018-12-27T03:31:44.062Z,1022.54
2018-12-27T03:32:44.054Z,1022.55
2018-12-27T03:33:52.479Z,1022.55
2018-12-27T03:34:44.054Z,1022.52
2018-12-27T03:35:44.061Z,1022.51
2018-12-27T03:36:44.056Z,1022.48
2018-12-27T03:37:44.068Z,1022.47
2018-12-27T03:38:44.063Z,1022.46
2018-12-27T03:39:44.063Z,1022.45
2018-12-27T03:40:44.065Z,1022.41
2018-12-27T03:41:44.067Z,1022.38
2018-12-27T03:42:44.073Z,1022.40
2018-12-27T03:43:44.081Z,1022.41
2018-12-27T03:44:44.085Z,1022.40
2018-12-27T03:45:44.081Z,1022.41
2018-12-27T03:46:44.084Z,1022.38
2018-12-27T03:47:44.077Z,1022.37
2018-12-27T03:48:44.089Z,1022.32
2018-12-27T03:49:44.103Z,1022.31
2018-12-27T03:50:44.092Z,1022.31
2018-12-27T03:51:44.097Z,1022.27
2018-12-27T03:52:44.102Z,1022.30
2018-12-27T03:53:44.094Z,1022.29
2018-12-27T03:54:44.102Z,1022.27
2018-12-27T03:55:44.104Z,1022.25
2018-12-27T03:56:44.107Z,1022.29
2018-12-27T03:57:44.110Z,1022.27
2018-12-27T03:58:44.109Z,1022.29
2018-12-27T03:59:44.115Z,1022.25
2018-12-27T04:00:44.121Z,1022.24
2018-12-27T04:01:44.136Z,1022.29
2018-12-27T04:02:44.123Z,1022.28
2018-12-27T04:03:44.121Z,1022.27
2018-12-27T04:04:44.180Z,1022.24
2018-12-27T04:05:44.127Z,1022.26
2018-12-27T04:06:44.136Z,1022.23
2018-12-27T04:07:44.134Z,1022.21
2018-12-27T04:08:44.135Z,1022.19
2018-12-27T04:09:44.140Z,1022.19
2018-12-27T04:10:44.141Z,1022.14
2018-12-27T04:11:44.146Z,1022.17
2018-12-27T04:12:44.145Z,1022.18
2018-12-27T04:13:44.153Z,1022.13
2018-12-27T04:14:44.156Z,1022.16
2018-12-27T04:15:44.151Z,1022.19
2018-12-27T04:16:44.158Z,1022.19
2018-12-27T04:17:44.159Z,1022.18
2018-12-27T04:18:44.170Z,1022.16
2018-12-27T04:19:44.166Z,1022.17
2018-12-27T04:20:44.162Z,1022.17
2018-12-27T04:21:44.166Z,1022.14
2018-12-27T04:22:44.164Z,1022.11
2018-12-27T04:23:44.174Z,1022.11
2018-12-27T04:24:44.175Z,1022.10
2018-12-27T04:25:44.173Z,1022.12
2018-12-27T04:26:44.178Z,1022.14
2018-12-27T04:27:44.183Z,1022.15
2018-12-27T04:28:44.182Z,1022.12
2018-12-27T04:29:44.189Z,1022.14
2018-12-27T04:30:44.189Z,1022.14
2018-12-27T04:31:44.190Z,1022.12
2018-12-27T04:32:44.190Z,1022.13
2018-12-27T04:33:44.189Z,1022.11
2018-12-27T04:34:44.201Z,1022.11
2018-12-27T04:35:44.196Z,1022.09
2018-12-27T04:36:44.200Z,1022.09
2018-12-27T04:37:44.199Z,1022.12
2018-12-27T04:38:44.206Z,1022.14
2018-12-27T04:39:44.204Z,1022.14
2018-12-27T04:40:44.214Z,1022.13
2018-12-27T04:41:44.214Z,1022.14
2018-12-27T04:42:44.216Z,1022.12
2018-12-27T04:43:44.213Z,1022.14
2018-12-27T04:44:44.215Z,1022.12
2018-12-27T04:45:44.226Z,1022.11
2018-12-27T04:46:44.226Z,1022.13
2018-12-27T04:47:44.217Z,1022.13
2018-12-27T04:48:44.231Z,1022.13
2018-12-27T04:49:44.232Z,1022.11
2018-12-27T04:50:44.233Z,1022.08
2018-12-27T04:51:44.333Z,1022.09
2018-12-27T04:52:44.240Z,1022.10
2018-12-27T04:53:44.241Z,1022.08
2018-12-27T04:54:44.245Z,1022.11
2018-12-27T04:55:44.236Z,1022.08
2018-12-27T04:56:44.239Z,1022.08
2018-12-27T04:57:44.246Z,1022.07
2018-12-27T04:58:44.248Z,1022.08
2018-12-27T04:59:44.255Z,1022.05
2018-12-27T05:00:44.246Z,1022.06
2018-12-27T05:01:44.250Z,1022.06
2018-12-27T05:02:44.249Z,1022.09
2018-12-27T05:03:44.277Z,1022.04
2018-12-27T05:04:44.341Z,1022.08
2018-12-27T05:05:44.272Z,1022.04
2018-12-27T05:06:44.260Z,1022.05
2018-12-27T05:07:44.272Z,1022.04
2018-12-27T05:08:44.264Z,1022.03
2018-12-27T05:09:44.272Z,1022.05
2018-12-27T05:10:44.282Z,1022.02
2018-12-27T05:11:44.280Z,1022.02
2018-12-27T05:12:44.277Z,1021.99
2018-12-27T05:13:44.287Z,1022.00
2018-12-27T05:14:44.285Z,1022.02
2018-12-27T05:15:44.290Z,1022.05
2018-12-27T05:16:44.295Z,1022.01
2018-12-27T05:17:44.291Z,1022.02
2018-12-27T05:18:44.296Z,1022.01
2018-12-27T05:19:44.300Z,1021.97
2018-12-27T05:20:44.298Z,1021.98
2018-12-27T05:21:44.308Z,1021.97
2018-12-27T05:22:44.318Z,1021.93
2018-12-27T05:23:44.310Z,1021.96
2018-12-27T05:24:44.322Z,1021.90
2018-12-27T05:25:44.319Z,1021.89
2018-12-27T05:26:44.328Z,1021.92
2018-12-27T05:27:44.319Z,1021.89
2018-12-27T05:28:44.328Z,1021.84
2018-12-27T05:29:44.322Z,1021.88
2018-12-27T05:30:44.329Z,1021.83
2018-12-27T05:31:44.326Z,1021.82
2018-12-27T05:32:44.334Z,1021.80
2018-12-27T05:33:44.334Z,1021.77
2018-12-27T05:34:44.341Z,1021.79
2018-12-27T05:35:44.334Z,1021.78
2018-12-27T05:36:44.362Z,1021.82
2018-12-27T05:37:44.354Z,1021.85
2018-12-27T05:38:44.471Z,1021.87
2018-12-27T05:39:44.344Z,1021.94
2018-12-27T05:40:44.387Z,1021.95
2018-12-27T05:41:44.352Z,1021.95
2018-12-27T05:42:44.466Z,1021.98
2018-12-27T05:43:44.350Z,1021.99
2018-12-27T05:44:44.491Z,1021.97
2018-12-27T05:45:44.355Z,1021.98
2018-12-27T05:46:44.363Z,1022.00
2018-12-27T05:47:44.369Z,1022.02
2018-12-27T05:48:44.365Z,1022.03
2018-12-27T05:49:44.371Z,1022.02
2018-12-27T05:50:44.375Z,1022.01
2018-12-27T05:51:44.373Z,1022.03
2018-12-27T05:52:44.457Z,1022.01
2018-12-27T05:53:44.379Z,1022.04
2018-12-27T05:54:44.425Z,1022.06
2018-12-27T05:55:44.377Z,1022.01
2018-12-27T05:56:44.395Z,1022.02
2018-12-27T05:57:44.397Z,1022.04
2018-12-27T05:58:44.479Z,1022.04
2018-12-27T05:59:44.391Z,1022.06
2018-12-27T06:00:45.073Z,1022.08
2018-12-27T06:01:44.396Z,1022.11
2018-12-27T06:02:44.392Z,1022.11
2018-12-27T06:03:44.402Z,1022.10
2018-12-27T06:04:44.444Z,1022.10
2018-12-27T06:05:44.404Z,1022.10
2018-12-27T06:06:44.419Z,1022.07
2018-12-27T06:07:44.412Z,1022.08
2018-12-27T06:08:44.413Z,1022.09
2018-12-27T06:09:44.421Z,1022.08
2018-12-27T06:10:44.436Z,1022.12
2018-12-27T06:11:44.414Z,1022.14
2018-12-27T06:12:44.434Z,1022.14
2018-12-27T06:13:44.424Z,1022.13
2018-12-27T06:14:44.421Z,1022.12
2018-12-27T06:15:44.424Z,1022.13
2018-12-27T06:16:44.514Z,1022.14
2018-12-27T06:17:44.432Z,1022.14
2018-12-27T06:18:44.433Z,1022.13
2018-12-27T06:19:44.431Z,1022.17
2018-12-27T06:20:44.441Z,1022.13
2018-12-27T06:21:44.442Z,1022.15
2018-12-27T06:22:44.459Z,1022.15
2018-12-27T06:23:44.442Z,1022.15
2018-12-27T06:24:44.458Z,1022.16
2018-12-27T06:25:44.452Z,1022.13
2018-12-27T06:26:44.452Z,1022.18
2018-12-27T06:27:44.452Z,1022.14
2018-12-27T06:28:44.570Z,1022.18
2018-12-27T06:29:44.464Z,1022.14
2018-12-27T06:30:44.464Z,1022.14
2018-12-27T06:31:44.462Z,1022.14
2018-12-27T06:32:44.514Z,1022.20
2018-12-27T06:33:44.470Z,1022.18
2018-12-27T06:34:44.626Z,1022.17
2018-12-27T06:35:44.475Z,1022.14
2018-12-27T06:36:44.548Z,1022.15
2018-12-27T06:37:44.476Z,1022.13
2018-12-27T06:38:44.519Z,1022.17
2018-12-27T06:39:44.480Z,1022.11
2018-12-27T06:40:44.490Z,1022.12
2018-12-27T06:41:44.486Z,1022.13
2018-12-27T06:42:44.580Z,1022.15
2018-12-27T06:43:44.488Z,1022.11
2018-12-27T06:44:44.506Z,1022.12
2018-12-27T06:45:44.501Z,1022.12
2018-12-27T06:46:44.504Z,1022.10
2018-12-27T06:47:44.498Z,1022.11
2018-12-27T06:48:44.518Z,1022.14
2018-12-27T06:49:44.506Z,1022.14
2018-12-27T06:50:44.508Z,1022.13
2018-12-27T06:51:44.506Z,1022.12
2018-12-27T06:52:44.522Z,1022.17
2018-12-27T06:53:44.518Z,1022.14
2018-12-27T06:54:44.605Z,1022.11
2018-12-27T06:55:44.513Z,1022.13
2018-12-27T06:56:44.550Z,1022.08
2018-12-27T06:57:44.526Z,1022.07
2018-12-27T06:58:44.558Z,1022.10
2018-12-27T06:59:44.524Z,1022.08
2018-12-27T07:00:44.538Z,1022.10
2018-12-27T07:01:44.536Z,1022.08
2018-12-27T07:02:44.542Z,1022.09
2018-12-27T07:03:44.540Z,1022.13
2018-12-27T07:04:48.902Z,1022.10
2018-12-27T07:05:44.544Z,1022.14
2018-12-27T07:06:44.575Z,1022.16
2018-12-27T07:07:44.547Z,1022.11
2018-12-27T07:08:44.564Z,1022.14
2018-12-27T07:09:44.552Z,1022.13
2018-12-27T07:10:44.562Z,1022.13
2018-12-27T07:11:44.559Z,1022.13
2018-12-27T07:12:44.550Z,1022.14
2018-12-27T07:13:44.561Z,1022.13
2018-12-27T07:14:44.566Z,1022.14
2018-12-27T07:15:44.565Z,1022.08
2018-12-27T07:16:44.570Z,1022.10
2018-12-27T07:17:44.570Z,1022.12
2018-12-27T07:18:44.580Z,1022.12
2018-12-27T07:19:44.568Z,1022.10
2018-12-27T07:20:44.579Z,1022.14
2018-12-27T07:21:44.577Z,1022.13
2018-12-27T07:22:44.585Z,1022.12
2018-12-27T07:23:44.579Z,1022.08
2018-12-27T07:24:44.591Z,1022.15
2018-12-27T07:25:44.597Z,1022.17
2018-12-27T07:26:44.589Z,1022.13
2018-12-27T07:27:44.593Z,1022.13
2018-12-27T07:28:44.612Z,1022.13
2018-12-27T07:29:44.598Z,1022.16
2018-12-27T07:30:44.602Z,1022.16
2018-12-27T07:31:44.602Z,1022.16
2018-12-27T07:32:44.612Z,1022.15
2018-12-27T07:33:44.603Z,1022.15
2018-12-27T07:34:44.607Z,1022.19
2018-12-27T07:35:44.615Z,1022.17
2018-12-27T07:36:44.613Z,1022.17
2018-12-27T07:37:44.618Z,1022.18
2018-12-27T07:38:44.631Z,1022.20
2018-12-27T07:39:44.624Z,1022.20
2018-12-27T07:40:44.623Z,1022.18
2018-12-27T07:41:44.623Z,1022.20
2018-12-27T07:42:44.631Z,1022.21
2018-12-27T07:43:44.628Z,1022.23
2018-12-27T07:44:44.630Z,1022.21
2018-12-27T07:45:44.632Z,1022.21
2018-12-27T07:46:44.639Z,1022.22
2018-12-27T07:47:44.631Z,1022.24
2018-12-27T07:48:44.643Z,1022.23
2018-12-27T07:49:44.641Z,1022.18
2018-12-27T07:50:44.653Z,1022.23
2018-12-27T07:51:44.641Z,1022.21
2018-12-27T07:52:44.662Z,1022.20
2018-12-27T07:53:44.649Z,1022.19
2018-12-27T07:54:44.653Z,1022.18
2018-12-27T07:55:44.655Z,1022.18
2018-12-27T07:56:44.660Z,1022.19
2018-12-27T07:57:44.665Z,1022.18
2018-12-27T07:58:44.669Z,1022.16
2018-12-27T07:59:44.667Z,1022.11
2018-12-27T08:00:44.669Z,1022.15
2018-12-27T08:01:44.671Z,1022.16
2018-12-27T08:02:44.675Z,1022.13
2018-12-27T08:03:44.671Z,1022.18
2018-12-27T08:04:44.679Z,1022.12
2018-12-27T08:05:44.670Z,1022.11
2018-12-27T08:06:44.678Z,1022.14
2018-12-27T08:07:44.677Z,1022.15
2018-12-27T08:08:44.713Z,1022.14
2018-12-27T08:09:44.687Z,1022.20
2018-12-27T08:10:44.689Z,1022.18
2018-12-27T08:11:44.690Z,1022.19
2018-12-27T08:12:44.691Z,1022.15
2018-12-27T08:13:44.698Z,1022.19
2018-12-27T08:14:44.698Z,1022.18
2018-12-27T08:15:44.694Z,1022.17
2018-12-27T08:16:44.703Z,1022.19
2018-12-27T08:17:44.705Z,1022.15
2018-12-27T08:18:44.705Z,1022.11
2018-12-27T08:19:44.706Z,1022.13
2018-12-27T08:20:44.708Z,1022.11
2018-12-27T08:21:44.711Z,1022.10
2018-12-27T08:22:44.713Z,1022.11
2018-12-27T08:23:44.714Z,1022.11
2018-12-27T08:24:44.721Z,1022.11
2018-12-27T08:25:44.718Z,1022.06
2018-12-27T08:26:44.720Z,1022.09
2018-12-27T08:27:44.726Z,1022.05
2018-12-27T08:28:44.727Z,1022.05
2018-12-27T08:29:44.733Z,1022.05
2018-12-27T08:30:44.732Z,1022.06
2018-12-27T08:31:44.743Z,1022.06
2018-12-27T08:32:44.737Z,1022.06
2018-12-27T08:33:44.746Z,1022.04
2018-12-27T08:34:44.743Z,1022.03
2018-12-27T08:35:44.743Z,1022.04
2018-12-27T08:36:44.746Z,1022.05
2018-12-27T08:37:44.753Z,1022.05
2018-12-27T08:38:44.742Z,1022.06
2018-12-27T08:39:44.750Z,1022.05
2018-12-27T08:40:44.757Z,1022.07
2018-12-27T08:41:44.758Z,1022.03
2018-12-27T08:42:44.757Z,1022.10
2018-12-27T08:43:44.768Z,1022.09
2018-12-27T08:44:44.767Z,1022.06
2018-12-27T08:45:44.766Z,1022.07
2018-12-27T08:46:44.769Z,1022.13
2018-12-27T08:47:44.768Z,1022.10
2018-12-27T08:48:44.772Z,1022.12
2018-12-27T08:49:44.777Z,1022.09
2018-12-27T08:50:44.785Z,1022.10
2018-12-27T08:51:44.777Z,1022.12
2018-12-27T08:52:44.780Z,1022.13
2018-12-27T08:53:44.782Z,1022.14
2018-12-27T08:54:44.791Z,1022.14
2018-12-27T08:55:44.786Z,1022.13
2018-12-27T08:56:44.791Z,1022.13
2018-12-27T08:57:44.832Z,1022.10
2018-12-27T08:58:44.787Z,1022.08
2018-12-27T08:59:44.814Z,1022.11
2018-12-27T09:00:44.808Z,1022.09
2018-12-27T09:01:44.807Z,1022.04
2018-12-27T09:02:44.802Z,1022.06
2018-12-27T09:03:44.802Z,1022.06
2018-12-27T09:04:44.817Z,1022.01
2018-12-27T09:05:44.811Z,1021.99
2018-12-27T09:06:44.810Z,1021.97
2018-12-27T09:07:44.874Z,1021.95
2018-12-27T09:08:44.812Z,1021.95
2018-12-27T09:09:44.820Z,1021.95
2018-12-27T09:10:44.823Z,1021.94
2018-12-27T09:11:44.818Z,1021.89
2018-12-27T09:12:44.826Z,1021.90
2018-12-27T09:13:44.831Z,1021.90
2018-12-27T09:14:44.829Z,1021.92
2018-12-27T09:15:44.829Z,1021.89
2018-12-27T09:16:44.837Z,1021.93
2018-12-27T09:17:44.837Z,1021.87
2018-12-27T09:18:44.841Z,1021.84
2018-12-27T09:19:44.837Z,1021.87
2018-12-27T09:20:44.843Z,1021.82
2018-12-27T09:21:44.847Z,1021.87
2018-12-27T09:22:44.849Z,1021.88
2018-12-27T09:23:44.848Z,1021.87
2018-12-27T09:24:44.852Z,1021.89
2018-12-27T09:25:45.660Z,1021.85
2018-12-27T09:26:44.853Z,1021.88
2018-12-27T09:27:44.857Z,1021.89
2018-12-27T09:28:44.862Z,1021.83
2018-12-27T09:29:44.865Z,1021.84
2018-12-27T09:30:44.865Z,1021.82
2018-12-27T09:31:44.880Z,1021.80
2018-12-27T09:32:44.869Z,1021.82
2018-12-27T09:33:44.870Z,1021.81
2018-12-27T09:34:44.877Z,1021.79
2018-12-27T09:35:44.875Z,1021.78
2018-12-27T09:36:44.875Z,1021.77
2018-12-27T09:37:44.881Z,1021.78
2018-12-27T09:38:44.886Z,1021.79
2018-12-27T09:39:44.883Z,1021.75
2018-12-27T09:40:44.885Z,1021.75
2018-12-27T09:41:44.889Z,1021.75
2018-12-27T09:42:44.890Z,1021.76
2018-12-27T09:43:44.901Z,1021.77
2018-12-27T09:44:44.898Z,1021.78
2018-12-27T09:45:44.891Z,1021.79
2018-12-27T09:46:44.902Z,1021.75
2018-12-27T09:47:44.905Z,1021.77
2018-12-27T09:48:44.908Z,1021.79
2018-12-27T09:49:44.907Z,1021.80
2018-12-27T09:50:44.910Z,1021.84
2018-12-27T09:51:44.915Z,1021.83
2018-12-27T09:52:44.919Z,1021.83
2018-12-27T09:53:44.920Z,1021.84
2018-12-27T09:54:44.921Z,1021.85
2018-12-27T09:55:44.923Z,1021.84
2018-12-27T09:56:44.933Z,1021.84
2018-12-27T09:57:44.925Z,1021.85
2018-12-27T09:58:44.929Z,1021.85
2018-12-27T09:59:44.931Z,1021.87
2018-12-27T10:00:44.939Z,1021.83
2018-12-27T10:01:44.961Z,1021.81
2018-12-27T10:02:44.935Z,1021.80
2018-12-27T10:03:44.938Z,1021.80
2018-12-27T10:04:44.937Z,1021.76
2018-12-27T10:05:44.949Z,1021.78
2018-12-27T10:06:44.949Z,1021.77
2018-12-27T10:07:44.950Z,1021.76
2018-12-27T10:08:44.949Z,1021.73
2018-12-27T10:09:44.951Z,1021.75
2018-12-27T10:10:44.955Z,1021.73
2018-12-27T10:11:44.953Z,1021.68
2018-12-27T10:12:44.955Z,1021.65
2018-12-27T10:13:44.963Z,1021.67
2018-12-27T10:14:44.969Z,1021.62
2018-12-27T10:15:44.966Z,1021.62
2018-12-27T10:16:44.969Z,1021.60
2018-12-27T10:17:44.972Z,1021.61
2018-12-27T10:18:44.971Z,1021.63
2018-12-27T10:19:44.978Z,1021.61
2018-12-27T10:20:44.976Z,1021.57
2018-12-27T10:21:44.990Z,1021.58
2018-12-27T10:22:44.987Z,1021.58
2018-12-27T10:23:44.986Z,1021.56
2018-12-27T10:24:44.986Z,1021.59
2018-12-27T10:25:44.986Z,1021.52
2018-12-27T10:26:45.021Z,1021.54
2018-12-27T10:27:44.994Z,1021.54
2018-12-27T10:28:44.998Z,1021.50
2018-12-27T10:29:44.996Z,1021.45
2018-12-27T10:30:44.997Z,1021.47
2018-12-27T10:31:44.999Z,1021.46
2018-12-27T10:32:45.017Z,1021.49
2018-12-27T10:33:45.005Z,1021.45
2018-12-27T10:34:45.011Z,1021.39
2018-12-27T10:35:45.013Z,1021.39
2018-12-27T10:36:45.019Z,1021.36
2018-12-27T10:37:45.014Z,1021.37
2018-12-27T10:38:45.017Z,1021.30
2018-12-27T10:39:45.025Z,1021.31
2018-12-27T10:40:45.023Z,1021.27
2018-12-27T10:41:45.025Z,1021.25
2018-12-27T10:42:45.031Z,1021.23
2018-12-27T10:43:45.025Z,1021.22
2018-12-27T10:44:45.028Z,1021.20
2018-12-27T10:45:45.039Z,1021.18
2018-12-27T10:46:45.037Z,1021.16
2018-12-27T10:47:45.037Z,1021.15
2018-12-27T10:48:45.045Z,1021.15
2018-12-27T10:49:45.047Z,1021.14
2018-12-27T10:50:45.049Z,1021.18
2018-12-27T10:51:45.053Z,1021.18
2018-12-27T10:52:45.049Z,1021.15
2018-12-27T10:53:45.053Z,1021.14
2018-12-27T10:54:45.053Z,1021.12
2018-12-27T10:55:45.059Z,1021.11
2018-12-27T10:56:45.064Z,1021.03
2018-12-27T10:57:45.064Z,1021.06
2018-12-27T10:58:45.062Z,1021.01
2018-12-27T10:59:45.070Z,1021.00
2018-12-27T11:00:45.068Z,1021.01
2018-12-27T11:01:45.072Z,1020.98
2018-12-27T11:02:45.071Z,1020.97
2018-12-27T11:03:45.075Z,1020.96
2018-12-27T11:04:45.076Z,1020.93
2018-12-27T11:05:48.561Z,1020.91
2018-12-27T11:06:45.084Z,1020.92
2018-12-27T11:07:45.081Z,1020.86
2018-12-27T11:08:45.090Z,1020.88
2018-12-27T11:09:45.094Z,1020.86
2018-12-27T11:10:45.103Z,1020.88
2018-12-27T11:11:45.100Z,1020.86
2018-12-27T11:12:45.102Z,1020.87
2018-12-27T11:13:45.098Z,1020.85
2018-12-27T11:15:06.548Z,1020.85
2018-12-27T11:16:06.536Z,1020.87
2018-12-27T11:17:58.480Z,1020.84
2018-12-27T11:18:58.469Z,1020.83
2018-12-27T11:20:50.386Z,1020.80
2018-12-27T11:21:50.372Z,1020.80
2018-12-27T11:23:42.349Z,1020.77
2018-12-27T11:24:42.320Z,1020.79
2018-12-27T11:26:34.255Z,1020.77
2018-12-27T11:27:34.233Z,1020.80
2018-12-27T11:29:26.716Z,1020.74
2018-12-27T11:30:26.184Z,1020.74
2018-12-27T11:32:18.646Z,1020.69
2018-12-27T11:33:18.110Z,1020.71
2018-12-27T11:35:10.976Z,1020.60
2018-12-27T11:36:17.032Z,1020.64
2018-12-27T11:38:02.061Z,1020.63
2018-12-27T11:39:02.043Z,1020.58
2018-12-27T11:40:53.990Z,1020.59
2018-12-27T11:41:54.129Z,1020.63
2018-12-27T11:43:45.900Z,1020.58
2018-12-27T11:44:45.891Z,1020.60
2018-12-27T11:46:37.821Z,1020.53
2018-12-27T11:47:37.822Z,1020.52
2018-12-27T11:49:29.741Z,1020.47
2018-12-27T11:50:29.726Z,1020.49
2018-12-27T11:52:21.686Z,1020.48
2018-12-27T11:53:21.677Z,1020.43
2018-12-27T11:55:13.638Z,1020.37
2018-12-27T11:56:13.600Z,1020.40
2018-12-27T11:58:05.545Z,1020.37
2018-12-27T11:59:05.537Z,1020.37
2018-12-27T12:00:57.460Z,1020.30
2018-12-27T12:01:57.453Z,1020.26
2018-12-27T12:03:49.419Z,1020.27
2018-12-27T12:04:49.401Z,1020.27
2018-12-27T12:06:41.335Z,1020.23
2018-12-27T12:07:41.329Z,1020.22
2018-12-27T12:09:33.777Z,1020.19
2018-12-27T12:10:33.220Z,1020.21
2018-12-27T12:12:25.314Z,1020.19
2018-12-27T12:13:25.304Z,1020.24
2018-12-27T12:15:17.240Z,1020.23
2018-12-27T12:16:17.230Z,1020.24
2018-12-27T12:18:09.188Z,1020.23
2018-12-27T12:19:09.150Z,1020.23
2018-12-27T12:21:01.599Z,1020.16
2018-12-27T12:22:01.068Z,1020.18
2018-12-27T12:23:53.128Z,1020.12
2018-12-27T12:24:53.120Z,1020.11
2018-12-27T12:26:45.079Z,1020.11
2018-12-27T12:27:45.060Z,1020.03